x

West Washington - 300nm West Of Aberdeen, Wa (46005) Wave Buoy

8:50pm - Tue 29th Jul 2014 All times are UTC.

  • Sig Wave height 3.0ft
  • Swell Direction
  • Peak Period 7s
  • Average Period 6s
  • Wind
    9mph, 11mph gusts
  • Sea Temp 64°f
  • Air Temp 63°f
  • Sea Pressure 1024mb

More Historic Weather Station data

Upgrade to MSW Pro to gain access to the past 30 days of data for over 8000 Wavebouys and Weather Stations around the globe.

Join Pro

Comparision Forecast

View Surf forecast
   
Tue 07/29 8:50pm 3ft 7s 6s 9 11 mph 1024mb 64f 63f
7:50pm 3ft 14s 6s 7
mph
1023.9mb 64f 63f
6:50pm 3ft 15s 6s 7
mph
1024.1mb 64f 63f
5:50pm 3.5ft 7s 6s 4 7 mph 1023.7mb 64f 63f
4:50pm 3.5ft 15s 6s  -  2 mph 1023.6mb 64f 64f
3:50pm 4ft 7s 6s 2
mph
1023.3mb 63f 63f
2:50pm 4ft 7s 6s 2
mph
1023.1mb 63f 62f
1:50pm 4.5ft 7s 6s 2 4 mph 1023mb 63f 62f
12:50pm 4.5ft 7s 6s 4
mph
1022.5mb 63f 62f
11:50am 4.5ft 7s 6s 7
mph
1022.2mb 63f 62f
10:50am 4.5ft 7s 6s 7
mph
1022.1mb 63f 62f
9:50am 4.5ft 7s 6s 7 9 mph 1022mb 63f 62f
8:50am 4.5ft 7s 6s 7 9 mph 1021.9mb 63f 62f
7:50am 4.5ft 8s 6s 9 11 mph 1021.9mb 63f 62f
6:50am 4.5ft 7s 6s 9 11 mph 1021.9mb 63f 63f
5:50am 4ft 7s 5s 13 16 mph 1021.7mb 63f 64f
4:50am 4ft 6s 5s 13 16 mph 1021.6mb 63f 64f
3:50am 3.5ft 5s 5s 16 20 mph 1021.4mb 63f 64f
2:50am 4ft 6s 5s 13 16 mph 1021.5mb 63f 64f
1:50am 3.5ft 5s 5s 13 16 mph 1021.5mb 63f 64f
12:50am 3.5ft 8s 5s 16 18 mph 1021.7mb 64f 64f
Mon 07/28 11:50pm 3.5ft 15s 5s 13 18 mph 1021.7mb 64f 64f
10:50pm 3.5ft 15s 5s 13 18 mph 1022mb 64f 64f
9:50pm 3.5ft 15s 5s 13 16 mph 1022.1mb 63f 64f
8:50pm 3.5ft 16s 5s 11 16 mph 1022.3mb 63f 64f
7:50pm 3.5ft 8s 6s 13 16 mph 1022.5mb 63f 64f
6:50pm 3ft 15s 6s 11 13 mph 1022.5mb 63f 64f
5:50pm 3ft 8s 6s 11 13 mph 1022.4mb 63f 64f
4:50pm 3ft 8s 6s 11 16 mph 1022.5mb 63f 64f
3:50pm 3ft 8s 6s 11 13 mph 1022.8mb 63f 63f
2:50pm 3ft 8s 6s 9 11 mph 1022.7mb 63f 63f
1:50pm 2.5ft 8s 6s 7 9 mph 1022.8mb 63f 63f
12:50pm 2.5ft 8s 6s 7 9 mph 1022.7mb 63f 63f
11:50am 2.5ft 8s 6s 9 11 mph 1022.6mb 63f 63f
10:50am 3ft 8s 6s 9 11 mph 1022.5mb 63f 63f
9:50am 2.5ft 8s 6s 9
mph
1022.6mb 63f 63f
8:50am 3ft 8s 7s 9
mph
1022.8mb 63f 63f
7:50am 3.5ft 8s 7s 7
mph
1023mb 63f 63f
6:50am 3ft 8s 6s 7 9 mph 1023.1mb 63f 63f
5:50am 3.5ft 8s 6s 9 11 mph 1023.3mb 63f 63f
4:50am 3.5ft 8s 6s 7
mph
1023.3mb 63f 63f
3:50am 4ft 8s 6s 7 9 mph 1023.1mb 63f 64f
1:50am 3.5ft 8s 6s 7 9 mph 1023.4mb 63f 64f
12:50am 3.5ft 8s 6s 9
mph
1023.5mb 63f 64f
Sun 07/27 11:50pm 3.5ft 8s 6s 9 11 mph 1023.8mb 63f 63f
10:50pm 3.5ft 8s 6s 9 11 mph 1024.1mb 63f 64f
9:50pm 3.5ft 8s 7s 9
mph
1024.3mb 63f 64f
8:50pm 3.5ft 8s 6s 9 11 mph 1024.3mb 63f 63f
7:50pm 3.5ft 8s 7s 4
mph
1024.3mb 63f 62f
6:50pm 3.5ft 8s 6s 7 9 mph 1024.4mb 63f 62f
5:50pm 3.5ft 9s 6s 7 9 mph 1024.4mb 62f 61f
4:50pm 3.5ft 9s 6s 9 11 mph 1024.3mb 62f 62f
3:50pm 3.5ft 9s 6s 9 11 mph 1024.1mb 62f 62f
2:50pm 4ft 9s 6s 9 11 mph 1023.6mb 62f 63f
1:50pm 4.5ft 8s 6s 9 13 mph 1023.4mb 62f 63f
12:50pm 4.5ft 8s 6s 9 11 mph 1023.2mb 62f 63f
11:50am 4.5ft 8s 6s 11 13 mph 1023.2mb 62f 63f
10:50am 4.5ft 7s 6s 11
mph
1023.2mb 62f 62f
9:50am 4.5ft 8s 6s 11
mph
1023.2mb 62f 62f
8:50am 4.5ft 8s 7s 9 11 mph 1023.2mb 62f 62f
7:50am 4.5ft 8s 6s 9 11 mph 1023.4mb 62f 62f
6:50am 4.5ft 8s 6s 11
mph
1023.3mb 62f 62f
5:50am 4ft 8s 6s 9 11 mph 1023.4mb 62f 62f
4:50am 4ft 9s 6s 9 11 mph 1023.2mb 62f 62f
3:50am 3.5ft 8s 6s 9
mph
1023.1mb 62f 63f
2:50am 4ft 8s 6s 9 11 mph 1023mb 62f 63f
1:50am 4ft 9s 6s 9 11 mph 1022.9mb 62f 63f
12:50am 4ft 8s 6s 11 13 mph 1023mb 62f 63f
Sat 07/26 11:50pm 4ft 9s 6s 9 11 mph 1023.1mb 62f 63f
10:50pm 4.5ft 8s 6s 11
mph
1022.9mb 62f 62f
9:50pm 4.5ft 8s 6s 11 13 mph 1022.8mb 62f 62f
8:50pm 4.5ft 8s 6s 13 16 mph 1022.7mb 62f 62f
7:50pm 4.5ft 8s 6s 16 18 mph 1022.5mb 62f 62f
6:50pm 4.5ft 7s 5s 16 18 mph 1022.4mb 62f 62f
5:50pm 4ft 7s 5s 16 18 mph 1022.2mb 62f 62f
4:50pm 3.5ft 7s 5s 13 16 mph 1022.1mb 62f 62f
3:50pm 3.5ft 7s 5s 11 13 mph 1021.8mb 62f 62f
2:50pm 3.5ft 7s 5s 16 20 mph 1021.3mb 62f 61f
1:50pm 3.5ft 7s 5s 13 16 mph 1020.9mb 62f 62f
12:50pm 3.5ft 6s 5s 13 16 mph 1020.7mb 62f 62f
11:50am 3.5ft 7s 5s 11 13 mph 1020.7mb 62f 62f
10:50am 3.5ft 7s 6s 11 16 mph 1020.7mb 62f 62f
9:50am 3.5ft 7s 6s 9 11 mph 1021mb 62f 61f
8:50am 3.5ft 6s 6s 9 11 mph 1021mb 62f 61f
7:50am 3.5ft 7s 6s 7
mph
1021.2mb 62f 61f
6:50am 3.5ft 7s 5s 7 9 mph 1021.3mb 62f 61f
5:50am 3.5ft 6s 5s 9
mph
1021.5mb 62f 61f
4:50am 3.5ft 6s 5s 9 11 mph 1021.3mb 62f 61f
3:50am 3.5ft 6s 5s 13 16 mph 1021.1mb 62f 60f
2:50am 3ft 6s 5s 13 16 mph 1020.9mb 62f 62f
1:50am 3ft 6s 5s 11 13 mph 1021.1mb 62f 62f
12:50am 3ft 6s 5s 11 13 mph 1021.5mb 62f 62f
Fri 07/25 11:50pm 3.5ft 6s 5s 11 13 mph 1021.8mb 62f 62f
10:50pm 3ft 6s 5s 11 13 mph 1021.9mb 62f 61f
9:50pm 3ft 6s 5s 11 13 mph 1021.8mb 62f 61f